Terminal Aerodrome Forecast
Issued by NWS

Home | Current Version | Previous Version | Text Only | Print | Product List | Glossary On
Versions: 1 2 3 4 5 6 7 8 9 10 11 12 13 14
000
FTUS43 KMPX 190215 AAA
TAFRWF
TAF AMD
KRWF 190215Z 1902/1924 08005KT 4SM -RA BR SCT008 BKN017 OVC030
     FM191000 18012KT P6SM VCSH OVC015
     FM191200 30012G19KT P6SM BKN015
     FM191700 22012G21KT P6SM SCT030 BKN050=

USA.gov is the U.S. government's official web portal to all federal, state and local government web resources and services.